sensor_id;sensor_type;location;lat;lon;timestamp;pressure;altitude;pressure_sealevel;temperature;humidity
77590;BME280;66746;51.328;12.332;2023-01-24T00:02:00;102638.97;;;1.38;94.45
77590;BME280;66746;51.328;12.332;2023-01-24T00:04:35;102619.19;;;1.33;93.61
77590;BME280;66746;51.328;12.332;2023-01-24T00:07:03;102620.91;;;1.31;93.68
77590;BME280;66746;51.328;12.332;2023-01-24T00:09:30;102611.72;;;1.23;92.53
77590;BME280;66746;51.328;12.332;2023-01-24T00:12:11;102612.50;;;1.20;93.21
77590;BME280;66746;51.328;12.332;2023-01-24T00:14:50;102621.38;;;1.19;92.78
77590;BME280;66746;51.328;12.332;2023-01-24T00:17:38;102627.78;;;1.24;93.19
77590;BME280;66746;51.328;12.332;2023-01-24T00:20:11;102630.38;;;1.21;93.50
77590;BME280;66746;51.328;12.332;2023-01-24T00:22:56;102626.94;;;1.25;93.37
77590;BME280;66746;51.328;12.332;2023-01-24T00:25:22;102618.03;;;1.25;93.89
77590;BME280;66746;51.328;12.332;2023-01-24T00:27:52;102625.16;;;1.26;94.14
77590;BME280;66746;51.328;12.332;2023-01-24T00:30:29;102632.34;;;1.27;93.86
77590;BME280;66746;51.328;12.332;2023-01-24T00:33:06;102630.59;;;1.27;93.61
77590;BME280;66746;51.328;12.332;2023-01-24T00:35:39;102628.56;;;1.22;92.72
77590;BME280;66746;51.328;12.332;2023-01-24T00:38:12;102612.50;;;1.20;93.44
77590;BME280;66746;51.328;12.332;2023-01-24T00:44:10;102620.34;;;1.16;92.36
77590;BME280;66746;51.328;12.332;2023-01-24T00:46:38;102636.72;;;1.25;94.33
77590;BME280;66746;51.328;12.332;2023-01-24T00:49:14;102638.28;;;1.20;93.59
77590;BME280;66746;51.328;12.332;2023-01-24T00:51:42;102642.97;;;1.25;94.08
77590;BME280;66746;51.328;12.332;2023-01-24T00:54:14;102635.84;;;1.26;93.48
77590;BME280;66746;51.328;12.332;2023-01-24T00:56:42;102625.81;;;1.19;93.67
77590;BME280;66746;51.328;12.332;2023-01-24T00:59:09;102631.19;;;1.20;93.56
77590;BME280;66746;51.328;12.332;2023-01-24T01:01:35;102608.41;;;1.06;93.73
77590;BME280;66746;51.328;12.332;2023-01-24T01:04:00;102602.97;;;1.03;93.03
77590;BME280;66746;51.328;12.332;2023-01-24T01:06:26;102609.38;;;1.08;94.22
77590;BME280;66746;51.328;12.332;2023-01-24T01:08:54;102623.97;;;1.18;93.37
77590;BME280;66746;51.328;12.332;2023-01-24T01:11:19;102618.31;;;1.09;92.99
77590;BME280;66746;51.328;12.332;2023-01-24T01:13:45;102635.56;;;1.18;93.15
77590;BME280;66746;51.328;12.332;2023-01-24T01:16:14;102635.81;;;1.24;93.21
77590;BME280;66746;51.328;12.332;2023-01-24T01:18:40;102631.38;;;1.25;92.92
77590;BME280;66746;51.328;12.332;2023-01-24T01:21:05;102633.09;;;1.23;92.94
77590;BME280;66746;51.328;12.332;2023-01-24T01:23:33;102633.09;;;1.23;93.15
77590;BME280;66746;51.328;12.332;2023-01-24T01:26:02;102616.59;;;1.11;92.56
77590;BME280;66746;51.328;12.332;2023-01-24T01:28:29;102635.56;;;1.18;93.16
77590;BME280;66746;51.328;12.332;2023-01-24T01:30:55;102619.28;;;1.11;93.13
77590;BME280;66746;51.328;12.332;2023-01-24T01:33:22;102608.50;;;1.08;93.55
77590;BME280;66746;51.328;12.332;2023-01-24T01:35:48;102608.81;;;1.17;93.17
77590;BME280;66746;51.328;12.332;2023-01-24T01:38:14;102586.91;;;1.02;92.84
77590;BME280;66746;51.328;12.332;2023-01-24T01:40:40;102583.19;;;0.98;93.03
77590;BME280;66746;51.328;12.332;2023-01-24T01:43:10;102589.56;;;1.02;93.23
77590;BME280;66746;51.328;12.332;2023-01-24T01:45:39;102571.59;;;0.98;93.72
77590;BME280;66746;51.328;12.332;2023-01-24T01:48:13;102617.06;;;1.23;93.45
77590;BME280;66746;51.328;12.332;2023-01-24T01:50:44;102618.03;;;1.25;94.39
77590;BME280;66746;51.328;12.332;2023-01-24T01:53:10;102603.41;;;1.15;93.39
77590;BME280;66746;51.328;12.332;2023-01-24T01:55:38;102608.91;;;1.20;93.11
77590;BME280;66746;51.328;12.332;2023-01-24T01:58:06;102609.78;;;1.19;94.08
77590;BME280;66746;51.328;12.332;2023-01-24T02:00:32;102592.72;;;1.15;93.59
77590;BME280;66746;51.328;12.332;2023-01-24T02:03:00;102609.78;;;1.19;92.16
77590;BME280;66746;51.328;12.332;2023-01-24T02:05:27;102612.50;;;1.20;92.25
77590;BME280;66746;51.328;12.332;2023-01-24T02:07:57;102585.81;;;0.97;93.04
77590;BME280;66746;51.328;12.332;2023-01-24T02:10:24;102600.34;;;1.05;92.73
77590;BME280;66746;51.328;12.332;2023-01-24T02:12:53;102614.09;;;1.15;93.31
77590;BME280;66746;51.328;12.332;2023-01-24T02:15:21;102624.88;;;1.18;92.23
77590;BME280;66746;51.328;12.332;2023-01-24T02:17:46;102605.81;;;1.08;93.35
77590;BME280;66746;51.328;12.332;2023-01-24T02:20:23;102602.19;;;1.06;92.96
77590;BME280;66746;51.328;12.332;2023-01-24T02:23:00;102623.09;;;1.17;92.77
77590;BME280;66746;51.328;12.332;2023-01-24T02:25:35;102626.66;;;1.18;92.44
77590;BME280;66746;51.328;12.332;2023-01-24T02:28:03;102625.59;;;1.13;92.52
77590;BME280;66746;51.328;12.332;2023-01-24T02:30:30;102602.78;;;0.99;93.08
77590;BME280;66746;51.328;12.332;2023-01-24T02:32:56;102620.00;;;1.07;93.59
77590;BME280;66746;51.328;12.332;2023-01-24T02:35:24;102623.00;;;1.16;93.71
77590;BME280;66746;51.328;12.332;2023-01-24T02:37:49;102607.53;;;1.06;93.08
77590;BME280;66746;51.328;12.332;2023-01-24T02:40:15;102610.94;;;1.02;92.41
77590;BME280;66746;51.328;12.332;2023-01-24T02:42:41;102616.50;;;1.08;93.12
77590;BME280;66746;51.328;12.332;2023-01-24T02:45:12;102620.16;;;1.10;93.25
77590;BME280;66746;51.328;12.332;2023-01-24T02:47:42;102595.78;;;1.02;93.47
77590;BME280;66746;51.328;12.332;2023-01-24T02:50:09;102634.00;;;1.23;93.89
77590;BME280;66746;51.328;12.332;2023-01-24T02:52:34;102634.06;;;1.25;93.80
77590;BME280;66746;51.328;12.332;2023-01-24T02:55:00;102627.69;;;1.21;93.80
77590;BME280;66746;51.328;12.332;2023-01-24T02:57:25;102627.84;;;1.26;93.29
77590;BME280;66746;51.328;12.332;2023-01-24T02:59:50;102606.00;;;1.14;93.45
77590;BME280;66746;51.328;12.332;2023-01-24T03:02:17;102623.22;;;1.22;92.49
77590;BME280;66746;51.328;12.332;2023-01-24T03:04:42;102593.28;;;1.07;93.11
77590;BME280;66746;51.328;12.332;2023-01-24T03:07:07;102615.13;;;1.19;93.55
77590;BME280;66746;51.328;12.332;2023-01-24T03:09:33;102628.66;;;1.23;94.21
77590;BME280;66746;51.328;12.332;2023-01-24T03:11:59;102626.88;;;1.24;93.10
77590;BME280;66746;51.328;12.332;2023-01-24T03:14:25;102605.03;;;1.12;93.67
77590;BME280;66746;51.328;12.332;2023-01-24T03:16:50;102600.63;;;1.12;92.46
77590;BME280;66746;51.328;12.332;2023-01-24T03:19:17;102615.22;;;1.22;92.39
77590;BME280;66746;51.328;12.332;2023-01-24T03:21:42;102609.78;;;1.19;93.72
77590;BME280;66746;51.328;12.332;2023-01-24T03:24:08;102619.69;;;1.21;93.73
77590;BME280;66746;51.328;12.332;2023-01-24T03:26:33;102623.34;;;1.25;93.86
77590;BME280;66746;51.328;12.332;2023-01-24T03:28:58;102621.31;;;1.18;92.90
77590;BME280;66746;51.328;12.332;2023-01-24T03:31:23;102629.31;;;1.18;92.79
77590;BME280;66746;51.328;12.332;2023-01-24T03:33:49;102628.44;;;1.17;92.42
77590;BME280;66746;51.328;12.332;2023-01-24T03:36:15;102623.88;;;1.15;91.99
77590;BME280;66746;51.328;12.332;2023-01-24T03:38:40;102625.69;;;1.16;93.14
77590;BME280;66746;51.328;12.332;2023-01-24T03:41:06;102618.53;;;1.15;92.43
77590;BME280;66746;51.328;12.332;2023-01-24T03:43:31;102611.25;;;1.11;93.78
77590;BME280;66746;51.328;12.332;2023-01-24T03:45:56;102617.56;;;1.13;92.53
77590;BME280;66746;51.328;12.332;2023-01-24T03:48:21;102582.06;;;0.92;92.39
77590;BME280;66746;51.328;12.332;2023-01-24T03:50:47;102580.47;;;0.97;93.11
77590;BME280;66746;51.328;12.332;2023-01-24T03:53:14;102606.09;;;1.15;93.57
77590;BME280;66746;51.328;12.332;2023-01-24T03:55:40;102616.88;;;1.18;93.41
77590;BME280;66746;51.328;12.332;2023-01-24T03:58:07;102613.19;;;1.15;93.14
77590;BME280;66746;51.328;12.332;2023-01-24T04:00:33;102614.91;;;1.13;92.12
77590;BME280;66746;51.328;12.332;2023-01-24T04:03:00;102595.78;;;1.02;93.07
77590;BME280;66746;51.328;12.332;2023-01-24T04:05:26;102613.06;;;1.12;92.56
77590;BME280;66746;51.328;12.332;2023-01-24T04:07:52;102598.53;;;1.04;93.42
77590;BME280;66746;51.328;12.332;2023-01-24T04:10:19;102622.88;;;1.11;92.66
77590;BME280;66746;51.328;12.332;2023-01-24T04:12:44;102617.38;;;1.08;91.64
77590;BME280;66746;51.328;12.332;2023-01-24T04:15:15;102612.88;;;1.06;91.94
77590;BME280;66746;51.328;12.332;2023-01-24T04:17:40;102621.84;;;1.08;93.72
77590;BME280;66746;51.328;12.332;2023-01-24T04:20:06;102621.94;;;1.11;92.75
77590;BME280;66746;51.328;12.332;2023-01-24T04:22:40;102625.47;;;1.10;92.54
77590;BME280;66746;51.328;12.332;2023-01-24T04:25:06;102609.22;;;1.04;92.60
77590;BME280;66746;51.328;12.332;2023-01-24T04:27:34;102619.56;;;0.95;92.91
77590;BME280;66746;51.328;12.332;2023-01-24T04:30:00;102617.28;;;1.05;92.71
77590;BME280;66746;51.328;12.332;2023-01-24T04:32:25;102637.75;;;1.05;92.58
77590;BME280;66746;51.328;12.332;2023-01-24T04:34:50;102621.53;;;1.00;92.41
77590;BME280;66746;51.328;12.332;2023-01-24T04:37:15;102612.50;;;0.97;93.80
77590;BME280;66746;51.328;12.332;2023-01-24T04:39:41;102626.38;;;1.10;92.83
77590;BME280;66746;51.328;12.332;2023-01-24T04:42:07;102619.78;;;1.01;92.63
77590;BME280;66746;51.328;12.332;2023-01-24T04:44:33;102634.38;;;1.10;93.32
77590;BME280;66746;51.328;12.332;2023-01-24T04:46:59;102596.16;;;0.87;92.60
77590;BME280;66746;51.328;12.332;2023-01-24T04:49:24;102603.88;;;1.04;92.82
77590;BME280;66746;51.328;12.332;2023-01-24T04:51:50;102622.16;;;1.17;93.24
77590;BME280;66746;51.328;12.332;2023-01-24T04:54:15;102591.28;;;1.00;91.86
77590;BME280;66746;51.328;12.332;2023-01-24T04:56:41;102614.84;;;1.11;91.65
77590;BME280;66746;51.328;12.332;2023-01-24T04:59:06;102611.22;;;1.09;92.81
77590;BME280;66746;51.328;12.332;2023-01-24T05:01:33;102604.69;;;1.01;92.39
77590;BME280;66746;51.328;12.332;2023-01-24T05:03:58;102607.28;;;1.00;92.34
77590;BME280;66746;51.328;12.332;2023-01-24T05:06:23;102612.88;;;1.06;91.86
77590;BME280;66746;51.328;12.332;2023-01-24T05:08:49;102614.50;;;1.02;91.59
77590;BME280;66746;51.328;12.332;2023-01-24T05:11:14;102592.75;;;0.92;92.71
77590;BME280;66746;51.328;12.332;2023-01-24T05:13:39;102606.44;;;1.01;92.01
77590;BME280;66746;51.328;12.332;2023-01-24T05:16:05;102623.41;;;1.03;92.16
77590;BME280;66746;51.328;12.332;2023-01-24T05:18:32;102624.34;;;1.03;92.24
77590;BME280;66746;51.328;12.332;2023-01-24T05:21:05;102630.47;;;1.01;92.53
77590;BME280;66746;51.328;12.332;2023-01-24T05:23:30;102632.41;;;1.05;92.71
77590;BME280;66746;51.328;12.332;2023-01-24T05:25:57;102631.63;;;1.07;93.65
77590;BME280;66746;51.328;12.332;2023-01-24T05:28:23;102596.16;;;0.87;93.79
77590;BME280;66746;51.328;12.332;2023-01-24T05:30:48;102628.91;;;1.06;92.85
77590;BME280;66746;51.328;12.332;2023-01-24T05:33:13;102632.59;;;1.09;93.36
77590;BME280;66746;51.328;12.332;2023-01-24T05:35:40;102636.22;;;1.11;93.82
77590;BME280;66746;51.328;12.332;2023-01-24T05:38:05;102635.25;;;1.09;93.20
77590;BME280;66746;51.328;12.332;2023-01-24T05:40:31;102641.50;;;1.10;93.06
77590;BME280;66746;51.328;12.332;2023-01-24T05:42:56;102647.69;;;1.09;93.08
77590;BME280;66746;51.328;12.332;2023-01-24T05:45:24;102650.25;;;1.06;92.87
77590;BME280;66746;51.328;12.332;2023-01-24T05:47:52;102632.84;;;0.93;93.21
77590;BME280;66746;51.328;12.332;2023-01-24T05:50:17;102621.03;;;0.86;92.21
77590;BME280;66746;51.328;12.332;2023-01-24T05:52:44;102652.75;;;1.01;92.65
77590;BME280;66746;51.328;12.332;2023-01-24T05:55:09;102628.06;;;0.84;92.19
77590;BME280;66746;51.328;12.332;2023-01-24T05:57:35;102660.59;;;0.97;92.72
77590;BME280;66746;51.328;12.332;2023-01-24T06:00:00;102635.09;;;0.82;92.58
77590;BME280;66746;51.328;12.332;2023-01-24T06:02:34;102650.53;;;0.89;92.99
77590;BME280;66746;51.328;12.332;2023-01-24T06:04:59;102612.53;;;0.74;92.83
77590;BME280;66746;51.328;12.332;2023-01-24T06:07:24;102637.97;;;0.87;93.05
77590;BME280;66746;51.328;12.332;2023-01-24T06:09:51;102644.22;;;0.87;93.39
77590;BME280;66746;51.328;12.332;2023-01-24T06:12:16;102625.16;;;0.78;93.02
77590;BME280;66746;51.328;12.332;2023-01-24T06:14:42;102657.97;;;0.98;93.70
77590;BME280;66746;51.328;12.332;2023-01-24T06:17:09;102640.69;;;0.88;93.33
77590;BME280;66746;51.328;12.332;2023-01-24T06:19:35;102636.81;;;0.80;94.38
77590;BME280;66746;51.328;12.332;2023-01-24T06:22:08;102673.44;;;1.07;93.95
77590;BME280;66746;51.328;12.332;2023-01-24T06:24:40;102676.06;;;1.05;93.55
77590;BME280;66746;51.328;12.332;2023-01-24T06:27:09;102644.56;;;0.97;93.77
77590;BME280;66746;51.328;12.332;2023-01-24T06:29:34;102669.16;;;1.12;93.73
77590;BME280;66746;51.328;12.332;2023-01-24T06:32:09;102668.00;;;1.04;93.60
77590;BME280;66746;51.328;12.332;2023-01-24T06:34:54;102675.09;;;1.03;92.67
77590;BME280;66746;51.328;12.332;2023-01-24T06:37:27;102663.50;;;1.03;93.02
77590;BME280;66746;51.328;12.332;2023-01-24T06:39:57;102671.69;;;1.07;93.32
77590;BME280;66746;51.328;12.332;2023-01-24T06:42:25;102645.06;;;0.86;93.41
77590;BME280;66746;51.328;12.332;2023-01-24T06:44:52;102657.31;;;1.04;94.19
77590;BME280;66746;51.328;12.332;2023-01-24T06:47:17;102675.31;;;1.09;92.58
77590;BME280;66746;51.328;12.332;2023-01-24T06:49:43;102679.94;;;1.13;93.67
77590;BME280;66746;51.328;12.332;2023-01-24T06:52:15;102679.00;;;1.13;93.42
77590;BME280;66746;51.328;12.332;2023-01-24T06:54:41;102668.97;;;1.06;93.73
77590;BME280;66746;51.328;12.332;2023-01-24T06:57:06;102657.97;;;0.98;93.77
77590;BME280;66746;51.328;12.332;2023-01-24T06:59:33;102669.78;;;1.05;93.99
77590;BME280;66746;51.328;12.332;2023-01-24T07:02:04;102684.06;;;1.05;92.53
77590;BME280;66746;51.328;12.332;2023-01-24T07:04:35;102691.13;;;1.03;92.33
77590;BME280;66746;51.328;12.332;2023-01-24T07:07:38;102682.72;;;0.94;92.79
77590;BME280;66746;51.328;12.332;2023-01-24T07:13:02;102687.47;;;1.01;93.32
77590;BME280;66746;51.328;12.332;2023-01-24T07:24:58;102694.72;;;1.04;93.26
77590;BME280;66746;51.328;12.332;2023-01-24T07:27:47;102707.19;;;1.05;93.20
77590;BME280;66746;51.328;12.332;2023-01-24T07:51:10;102726.91;;;1.08;93.11
77590;BME280;66746;51.328;12.332;2023-01-24T07:53:52;102732.09;;;1.04;93.19
77590;BME280;66746;51.328;12.332;2023-01-24T07:56:18;102725.84;;;1.03;93.16
77590;BME280;66746;51.328;12.332;2023-01-24T07:59:01;102735.84;;;1.09;93.48
77590;BME280;66746;51.328;12.332;2023-01-24T08:01:52;102725.78;;;1.02;93.42
77590;BME280;66746;51.328;12.332;2023-01-24T08:04:57;102730.25;;;1.03;93.44
77590;BME280;66746;51.328;12.332;2023-01-24T08:07:24;102737.56;;;1.07;93.23
77590;BME280;66746;51.328;12.332;2023-01-24T08:09:53;102725.78;;;1.02;93.75
77590;BME280;66746;51.328;12.332;2023-01-24T08:12:19;102748.38;;;1.10;93.02
77590;BME280;66746;51.328;12.332;2023-01-24T08:14:45;102742.06;;;1.08;93.19
77590;BME280;66746;51.328;12.332;2023-01-24T08:17:10;102741.09;;;1.06;93.09
77590;BME280;66746;51.328;12.332;2023-01-24T08:19:39;102734.63;;;1.01;92.23
77590;BME280;66746;51.328;12.332;2023-01-24T08:22:05;102744.34;;;0.99;92.27
77590;BME280;66746;51.328;12.332;2023-01-24T08:24:32;102744.25;;;0.96;92.90
77590;BME280;66746;51.328;12.332;2023-01-24T08:26:58;102755.91;;;0.98;92.82
77590;BME280;66746;51.328;12.332;2023-01-24T08:29:24;102758.81;;;1.04;92.75
77590;BME280;66746;51.328;12.332;2023-01-24T08:31:51;102746.25;;;1.01;93.42
77590;BME280;66746;51.328;12.332;2023-01-24T08:34:24;102765.19;;;1.07;92.56
77590;BME280;66746;51.328;12.332;2023-01-24T08:37:05;102757.16;;;1.07;92.39
77590;BME280;66746;51.328;12.332;2023-01-24T08:39:33;102748.03;;;1.02;92.50
77590;BME280;66746;51.328;12.332;2023-01-24T08:42:09;102757.16;;;1.07;93.75
77590;BME280;66746;51.328;12.332;2023-01-24T08:44:38;102756.44;;;1.11;92.84
77590;BME280;66746;51.328;12.332;2023-01-24T08:47:03;102748.28;;;1.08;92.79
77590;BME280;66746;51.328;12.332;2023-01-24T08:49:29;102753.81;;;1.13;92.74
77590;BME280;66746;51.328;12.332;2023-01-24T08:51:57;102747.47;;;1.09;92.49
77590;BME280;66746;51.328;12.332;2023-01-24T08:54:45;102759.22;;;1.14;92.55
77590;BME280;66746;51.328;12.332;2023-01-24T08:57:18;102740.22;;;1.07;92.37
77590;BME280;66746;51.328;12.332;2023-01-24T08:59:44;102748.38;;;1.10;92.51
77590;BME280;66746;51.328;12.332;2023-01-24T09:02:15;102755.63;;;1.14;92.40
77590;BME280;66746;51.328;12.332;2023-01-24T09:04:47;102747.25;;;1.05;92.05
77590;BME280;66746;51.328;12.332;2023-01-24T09:07:16;102750.19;;;1.11;92.71
77590;BME280;66746;51.328;12.332;2023-01-24T09:09:42;102753.03;;;1.15;92.76
77590;BME280;66746;51.328;12.332;2023-01-24T09:12:10;102749.41;;;1.13;91.96
77590;BME280;66746;51.328;12.332;2023-01-24T09:14:39;102747.69;;;1.15;91.43
77590;BME280;66746;51.328;12.332;2023-01-24T09:17:05;102745.91;;;1.16;92.42
77590;BME280;66746;51.328;12.332;2023-01-24T09:19:32;102748.81;;;1.22;92.50
77590;BME280;66746;51.328;12.332;2023-01-24T09:21:58;102747.78;;;1.18;91.93
77590;BME280;66746;51.328;12.332;2023-01-24T09:24:26;102752.22;;;1.18;92.21
77590;BME280;66746;51.328;12.332;2023-01-24T09:26:51;102737.06;;;1.17;92.41
77590;BME280;66746;51.328;12.332;2023-01-24T09:29:18;102746.16;;;1.22;91.06
77590;BME280;66746;51.328;12.332;2023-01-24T09:32:02;102747.25;;;1.27;91.85
77590;BME280;66746;51.328;12.332;2023-01-24T09:34:41;102743.72;;;1.28;92.04
77590;BME280;66746;51.328;12.332;2023-01-24T09:37:07;102743.84;;;1.31;92.16
77590;BME280;66746;51.328;12.332;2023-01-24T09:39:32;102743.84;;;1.31;92.58
77590;BME280;66746;51.328;12.332;2023-01-24T09:42:09;102754.78;;;1.37;92.37
77590;BME280;66746;51.328;12.332;2023-01-24T09:44:44;102739.47;;;1.33;91.50
77590;BME280;66746;51.328;12.332;2023-01-24T09:47:17;102750.25;;;1.36;90.47
77590;BME280;66746;51.328;12.332;2023-01-24T09:49:48;102738.72;;;1.37;91.30
77590;BME280;66746;51.328;12.332;2023-01-24T09:52:23;102743.94;;;1.34;92.01
77590;BME280;66746;51.328;12.332;2023-01-24T09:55:02;102764.97;;;1.47;91.70
77590;BME280;66746;51.328;12.332;2023-01-24T09:58:38;102756.06;;;1.48;91.76
77590;BME280;66746;51.328;12.332;2023-01-24T10:00:28;102765.91;;;1.49;90.72
77590;BME280;66746;51.328;12.332;2023-01-24T10:03:03;102749.75;;;1.46;91.38
77590;BME280;66746;51.328;12.332;2023-01-24T10:05:37;102752.66;;;1.52;91.66
77590;BME280;66746;51.328;12.332;2023-01-24T10:08:15;102742.47;;;1.42;89.99
77590;BME280;66746;51.328;12.332;2023-01-24T10:10:49;102745.16;;;1.42;91.22
77590;BME280;66746;51.328;12.332;2023-01-24T10:13:31;102727.16;;;1.38;91.52
77590;BME280;66746;51.328;12.332;2023-01-24T10:16:15;102727.34;;;1.42;91.04
77590;BME280;66746;51.328;12.332;2023-01-24T10:19:10;102733.72;;;1.46;90.38
77590;BME280;66746;51.328;12.332;2023-01-24T10:22:06;102728.56;;;1.50;90.20
77590;BME280;66746;51.328;12.332;2023-01-24T10:24:42;102725.06;;;1.53;91.18
77590;BME280;66746;51.328;12.332;2023-01-24T10:27:30;102723.34;;;1.55;90.11
77590;BME280;66746;51.328;12.332;2023-01-24T10:29:58;102730.53;;;1.56;90.72
77590;BME280;66746;51.328;12.332;2023-01-24T10:32:36;102727.91;;;1.57;90.24
77590;BME280;66746;51.328;12.332;2023-01-24T10:35:16;102714.50;;;1.56;91.29
77590;BME280;66746;51.328;12.332;2023-01-24T10:38:05;102725.41;;;1.62;90.93
77590;BME280;66746;51.328;12.332;2023-01-24T10:40:48;102704.75;;;1.58;90.83
77590;BME280;66746;51.328;12.332;2023-01-24T10:43:16;102717.44;;;1.63;90.78
77590;BME280;66746;51.328;12.332;2023-01-24T10:46:11;102717.44;;;1.63;91.06
77590;BME280;66746;51.328;12.332;2023-01-24T10:48:48;102715.78;;;1.67;89.47
77590;BME280;66746;51.328;12.332;2023-01-24T10:51:20;102734.63;;;1.70;89.64
77590;BME280;66746;51.328;12.332;2023-01-24T10:53:48;102714.81;;;1.65;89.75
77590;BME280;66746;51.328;12.332;2023-01-24T10:56:15;102713.16;;;1.68;89.83
77590;BME280;66746;51.328;12.332;2023-01-24T11:01:42;102714.06;;;1.69;89.69
77590;BME280;66746;51.328;12.332;2023-01-24T11:04:20;102699.00;;;1.71;90.63
77590;BME280;66746;51.328;12.332;2023-01-24T11:06:49;102700.69;;;1.69;90.23
77590;BME280;66746;51.328;12.332;2023-01-24T11:09:19;102707.13;;;1.74;90.10
77590;BME280;66746;51.328;12.332;2023-01-24T11:11:46;102713.53;;;1.79;90.31
77590;BME280;66746;51.328;12.332;2023-01-24T11:14:16;102710.78;;;1.76;90.26
77590;BME280;66746;51.328;12.332;2023-01-24T11:16:48;102709.91;;;1.77;90.22
77590;BME280;66746;51.328;12.332;2023-01-24T11:19:25;102708.19;;;1.79;89.88
77590;BME280;66746;51.328;12.332;2023-01-24T11:21:55;102707.13;;;1.74;89.51
77590;BME280;66746;51.328;12.332;2023-01-24T11:24:23;102703.63;;;1.76;89.95
77590;BME280;66746;51.328;12.332;2023-01-24T11:27:04;102693.63;;;1.71;89.78
77590;BME280;66746;51.328;12.332;2023-01-24T11:29:30;102704.56;;;1.77;89.97
77590;BME280;66746;51.328;12.332;2023-01-24T11:32:00;102711.63;;;1.75;89.15
77590;BME280;66746;51.328;12.332;2023-01-24T11:34:53;102703.63;;;1.76;90.75
77590;BME280;66746;51.328;12.332;2023-01-24T11:37:35;102708.94;;;1.75;89.83
77590;BME280;66746;51.328;12.332;2023-01-24T11:40:18;102711.63;;;1.75;90.95
77590;BME280;66746;51.328;12.332;2023-01-24T11:42:53;102697.09;;;1.68;89.50
77590;BME280;66746;51.328;12.332;2023-01-24T11:45:44;102698.25;;;1.75;90.41
77590;BME280;66746;51.328;12.332;2023-01-24T11:48:18;102693.63;;;1.71;89.19
77590;BME280;66746;51.328;12.332;2023-01-24T11:51:01;102692.69;;;1.69;90.21
77590;BME280;66746;51.328;12.332;2023-01-24T11:53:42;102691.63;;;1.64;89.79
77590;BME280;66746;51.328;12.332;2023-01-24T11:56:22;102689.91;;;1.66;89.21
77590;BME280;66746;51.328;12.332;2023-01-24T11:59:05;102691.84;;;1.70;90.68
77590;BME280;66746;51.328;12.332;2023-01-24T12:01:44;102689.09;;;1.68;90.68
77590;BME280;66746;51.328;12.332;2023-01-24T12:04:41;102681.72;;;1.61;90.36
77590;BME280;66746;51.328;12.332;2023-01-24T12:07:14;102686.41;;;1.68;89.96
77590;BME280;66746;51.328;12.332;2023-01-24T12:09:47;102699.00;;;1.71;90.28
77590;BME280;66746;51.328;12.332;2023-01-24T12:12:20;102687.31;;;1.69;90.59
77590;BME280;66746;51.328;12.332;2023-01-24T12:15:11;102684.66;;;1.69;90.77
77590;BME280;66746;51.328;12.332;2023-01-24T12:17:59;102686.63;;;1.74;90.98
77590;BME280;66746;51.328;12.332;2023-01-24T12:23:41;102686.59;;;1.73;90.36
77590;BME280;66746;51.328;12.332;2023-01-24T12:26:11;102685.75;;;1.74;90.43
77590;BME280;66746;51.328;12.332;2023-01-24T12:28:39;102689.47;;;1.79;90.68
77590;BME280;66746;51.328;12.332;2023-01-24T12:31:09;102683.91;;;1.73;89.55
77590;BME280;66746;51.328;12.332;2023-01-24T12:33:44;102683.72;;;1.68;90.92
77590;BME280;66746;51.328;12.332;2023-01-24T12:36:13;102684.56;;;1.66;90.08
77590;BME280;66746;51.328;12.332;2023-01-24T12:38:45;102690.78;;;1.66;90.06
77590;BME280;66746;51.328;12.332;2023-01-24T12:41:18;102683.66;;;1.65;89.88
77590;BME280;66746;51.328;12.332;2023-01-24T12:43:51;102679.22;;;1.66;90.05
77590;BME280;66746;51.328;12.332;2023-01-24T12:46:26;102677.38;;;1.65;91.41
77590;BME280;66746;51.328;12.332;2023-01-24T12:49:00;102681.06;;;1.68;90.39
77590;BME280;66746;51.328;12.332;2023-01-24T12:51:31;102668.59;;;1.69;90.92
77590;BME280;66746;51.328;12.332;2023-01-24T12:54:04;102679.31;;;1.69;90.51
77590;BME280;66746;51.328;12.332;2023-01-24T12:56:39;102670.38;;;1.68;90.90
77590;BME280;66746;51.328;12.332;2023-01-24T12:59:09;102679.31;;;1.69;90.08
77590;BME280;66746;51.328;12.332;2023-01-24T13:01:56;102681.16;;;1.70;90.85
77590;BME280;66746;51.328;12.332;2023-01-24T13:04:30;102672.16;;;1.68;90.39
77590;BME280;66746;51.328;12.332;2023-01-24T13:07:09;102667.78;;;1.70;91.03
77590;BME280;66746;51.328;12.332;2023-01-24T13:09:44;102663.16;;;1.66;91.08
77590;BME280;66746;51.328;12.332;2023-01-24T13:12:14;102673.97;;;1.69;90.14
77590;BME280;66746;51.328;12.332;2023-01-24T13:14:43;102668.56;;;1.67;91.39
77590;BME280;66746;51.328;12.332;2023-01-24T13:17:19;102662.34;;;1.68;90.26
77590;BME280;66746;51.328;12.332;2023-01-24T13:19:57;102666.59;;;1.62;91.17
77590;BME280;66746;51.328;12.332;2023-01-24T13:22:35;102639.41;;;1.50;90.35
77590;BME280;66746;51.328;12.332;2023-01-24T13:25:20;102624.88;;;1.42;91.17
77590;BME280;66746;51.328;12.332;2023-01-24T13:27:51;102663.97;;;1.63;90.92
77590;BME280;66746;51.328;12.332;2023-01-24T13:30:29;102656.84;;;1.64;91.09
77590;BME280;66746;51.328;12.332;2023-01-24T13:32:58;102651.47;;;1.62;90.48
77590;BME280;66746;51.328;12.332;2023-01-24T13:35:26;102664.94;;;1.65;90.91
77590;BME280;66746;51.328;12.332;2023-01-24T13:38:00;102656.84;;;1.64;91.42
77590;BME280;66746;51.328;12.332;2023-01-24T13:40:31;102652.31;;;1.61;91.09
77590;BME280;66746;51.328;12.332;2023-01-24T13:42:57;102644.09;;;1.57;91.21
77590;BME280;66746;51.328;12.332;2023-01-24T13:45:48;102663.22;;;1.67;91.45
77590;BME280;66746;51.328;12.332;2023-01-24T13:48:53;102671.19;;;1.66;90.62
77590;BME280;66746;51.328;12.332;2023-01-24T13:51:43;102675.56;;;1.64;90.40
77590;BME280;66746;51.328;12.332;2023-01-24T13:54:20;102666.59;;;1.62;90.69